SkyGliders logo
contact    inloggen   
gradient

Globale structuur


Goh, er zit structuur in!

Hieronder staan een aantal METARs die ik van de K.N.M.I. site geplukt heb. Kijk er eens rustig naar en probeer of je er enige logica, samenhang, regelmaat o.i.d. in kunt ontdekken.

METAR EHAM 010955Z 04007KT 010V070 9999 FEW030 20/12 Q1015 NOSIG=
METAR EHFD 010955Z AUTO 06009KT 6000NDV 13/12 Q////=
METAR COR EHKD 010955Z 04009KT 9000 HZ FEW280 18/15 Q1016 BLU BLU=
METAR EHTW 010955Z 06007KT 9999 FEW028 BKN280 21/13 Q1015 BLU BLU=
METAR EHVK 010955Z 10005KT 9999 BKN050 BKN340 20/12 Q1014 BLU BLU=

Als het goed is, zijn je een paar dingen opgevallen:

  • METARs bestaan uit "woorden", vaak met een vaste lengte.
  • We zien voornamelijk cijfers en letters, weinig andere tekens. En al helemaal geen punten of komma's.
  • Een aantal dingen komen steeds terug: eerst het woord METAR, dan EH gevolgd door nog twee letters, dan steeds hetzelfde woord 010955Z, dan iets met KT op het eind, twee getallen met een slash (/) ertussen, een Q met vier cijfers erachter (waarvan bovendien de eerste drie steeds 101 zijn) en op het eind een = teken. Ook de lettercombinaties FEW, BKN en BLU komen regelmatig terug.
De opbouw van een METAR

Dat je steeds diezelfde dingen terugziet is niet zo vreemd, want METARs hebben een vaste opbouw. Een METAR bestaat uit de volgende onderdelen:

Status van een onderdeel

Niet al deze onderdelen zijn verplicht in ieder METAR bericht aanwezig. Bij de bespreking van elk van de onderdelen zal bovenaan aangegeven worden wat de status ervan is. De mogelijkheden zijn:

  • verplicht
    Spreekt voor zich: het onderdeel dient altijd in ieder bericht te zijn opgenomen.
  • optioneel
    Het onderdeel kan naar believen zijn opgenomen of weggelaten.
  • relevant
    Het onderdeel dient te worden opgenomen als het van toepassing is en anders te worden weggelaten.
  • CAVOK
    Deze status wordt alleen vermeld in combinatie met één van de andere mogelijkheden. Wat het precies inhoudt wordt later uitgelegd, bij de bespreking van CAVOK. Zolang je (nog) niet weet wat dat is, hoef je er ook niet op te letten.
Volgorde

Zoals gezegd zijn niet alle onderdelen verplicht, maar de volgorde van de onderdelen ligt wèl vast! De onderdelen die aanwezig zijn staan altijd in de volgorde zoals in bovenstaande lijst: eerst de kop, dan de identificatiegroep, daarna de windgroep, enzovoort. Je kunt dus nooit eerst de temperatuurgroep krijgen en dan pas de zichtgroep, bijvoorbeeld.

Alfabet

Er is maar een beperkt aantal tekens dat gebruikt mag worden in METAR berichten. Deze zijn:

  • De letters A t/m Z. Er wordt geen onderscheid gemaakt tussen hoofdletters en kleine letters en in principe worden alleen hoofdletters gebruikt. Verder wordt er geen gebruik gemaakt van umlauts, accenten en dergelijke.
  • De cijfers 0 t/m 9. Zonder punten of komma's, alleen de cijfers zelf.
  • De spatie en de slash (/).
  • Het = teken, maar dan alleen om het einde van een bericht aan te geven (zie de volgende pagina).

Dat was het. Geen punten, komma's, haakjes, umlauts, cedilles, hekjes of wat dies meer zij. Overigens zijn er wel een paar kleine uitzonderingen op bovenstaande regels, maar die komen we vanzelf wel tegen.


volgende pagina